Elwood, IL (60421)

6:25 PM CST on December 22, 2014 (GMT -0600)
Country Veiw Estates, Daniel Lewis Dr. | Change Station
CLOSE
Current Station
Personal Weather Station
Location: New Lenox, IL
Elevation: 666 ft
Nearby Weather Stations
Active Advisory: Special Statement

Elev 666 ft 41.48 °N, 88.00 °W | Updated 5 minutes ago

Rain
Rain
39.7 °F
Feels Like 33 °F
N
11.0
Wind Variable Wind from SSE

Today
High -- | Low -- °F
--% Chance of Precip.
Yesterday
High -- | Low -- °F
Precip. -- in
7:15 AM 4:26 PM
New Moon, 1% visible
Pressure 29.65 in
Visibility 2.5 miles
Clouds Overcast 500 ft
Windchill 33 °F
Dew Point 40 °F
Humidity 99%
Rainfall 0.27 in
Snow Depth Not available.
UV 0 out of 12
Pollen .10 out of 12
Air Quality Not available.
Flu Activity Not available.
METAR KJOT 230015Z AUTO 12011G15KT 2 1/2SM RA OVC005 05/04 A2965 RMK AO2 T00450038

More Conditions Fewer Conditions

Pressure 29.65 in
Visibility 2.5 miles
Clouds Overcast 500 ft
Windchill 33 °F
Dew Point 40 °F
Humidity 99%
Rainfall 0.27 in
Snow Depth Not available.
UV 0 out of 12
Pollen .10 out of 12
Air Quality Not available.
Flu Activity Not available.
METAR KJOT 230015Z AUTO 12011G15KT 2 1/2SM RA OVC005 05/04 A2965 RMK AO2 T00450038

More Conditions Fewer Conditions

10-Day Weather Forecast

Almanac

Astronomy

Dec. 22, 2014 Rise Set
Actual Time
Civil Twilight
Nautical Twilight
Astronomical Twilight
Moon
Length of Visible Light
Length of Day
Tomorrow will be .
, % of the Moon is Illuminated

Today's Extremes

State Highs State Lows

Community

WunderPhotos

Upload Photos

1,779,738 photos uploaded!

WunderBlogs® & News

Nearby

Air Quality

  Air Quality AQ Index Pollutant
Not available.

Snow Depth

Station Depth Elevation

Earthquake Activity

City Distance Mag. Time & Date
Minimum magnitude displayed is 2.5.

Coastal Water Temperatures

Place Temperature

Nearby Weather Stations